Time,TemperatureF,DewpointF,PressureIn,WindDirection,WindDirectionDegrees,WindSpeedMPH,WindSpeedGustMPH,Humidity,HourlyPrecipIn,Conditions,Clouds,dailyrainin,SoftwareType,DateUTC
2013-07-01 00:11:00,64.9,52.0,29.99,NE,52,3.0,5.0,63,0.00,,,0.00,weatherlink.com 1.10,2013-07-01 04:11:00,
2013-07-01 00:26:00,65.2,50.0,29.99,NE,46,5.0,8.0,58,0.00,,,0.00,weatherlink.com 1.10,2013-07-01 04:26:00,
2013-07-01 00:41:00,64.6,48.0,29.99,NE,43,5.0,6.0,55,0.00,,,0.00,weatherlink.com 1.10,2013-07-01 04:41:00,
2013-07-01 00:56:00,63.9,49.0,30.00,NNE,33,4.0,6.0,58,0.00,,,0.00,weatherlink.com 1.10,2013-07-01 04:56:00,
2013-07-01 01:11:00,63.2,48.0,30.00,NE,50,5.0,7.0,58,0.00,,,0.00,weatherlink.com 1.10,2013-07-01 05:11:00,
2013-07-01 01:26:00,63.9,47.0,30.00,NE,46,7.0,10.0,55,0.00,,,0.00,weatherlink.com 1.10,2013-07-01 05:26:00,
2013-07-01 01:41:00,63.9,46.0,30.00,NE,54,1.0,9.0,53,0.00,,,0.00,weatherlink.com 1.10,2013-07-01 05:41:00,
2013-07-01 01:56:00,60.1,48.0,30.00,South,187,1.0,4.0,64,0.00,,,0.00,weatherlink.com 1.10,2013-07-01 05:56:00,
2013-07-01 02:11:00,62.4,47.0,30.00,South,187,1.0,3.0,57,0.00,,,0.00,weatherlink.com 1.10,2013-07-01 06:11:00,
2013-07-01 02:26:00,61.3,47.0,30.00,South,175,3.0,3.0,59,0.00,,,0.00,weatherlink.com 1.10,2013-07-01 06:26:00,
2013-07-01 02:41:00,62.7,47.0,30.01,SE,143,3.0,4.0,57,0.00,,,0.00,weatherlink.com 1.10,2013-07-01 06:41:00,
2013-07-01 02:56:00,62.3,47.0,30.01,ENE,63,3.0,5.0,58,0.00,,,0.00,weatherlink.com 1.10,2013-07-01 06:56:00,
2013-07-01 03:12:00,61.9,48.0,30.00,ENE,64,2.0,5.0,60,0.00,,,0.00,weatherlink.com 1.10,2013-07-01 07:12:00,
2013-07-01 03:27:00,59.7,48.0,30.00,ENE,64,0.0,3.0,66,0.00,,,0.00,weatherlink.com 1.10,2013-07-01 07:27:00,
2013-07-01 03:42:00,58.6,48.0,30.00,ENE,63,0.0,2.0,69,0.00,,,0.00,weatherlink.com 1.10,2013-07-01 07:42:00,
2013-07-01 03:57:00,59.3,48.0,30.00,ENE,64,0.0,1.0,66,0.00,,,0.00,weatherlink.com 1.10,2013-07-01 07:57:00,
2013-07-01 04:12:00,58.7,47.0,30.00,ENE,64,0.0,1.0,66,0.00,,,0.00,weatherlink.com 1.10,2013-07-01 08:12:00,
2013-07-01 04:27:00,57.6,48.0,30.00,ENE,63,0.0,0.0,70,0.00,,,0.00,weatherlink.com 1.10,2013-07-01 08:27:00,
2013-07-01 04:42:00,57.2,47.0,30.01,ENE,64,0.0,3.0,70,0.00,,,0.00,weatherlink.com 1.10,2013-07-01 08:42:00,
2013-07-01 04:57:00,57.0,47.0,30.02,ENE,64,2.0,3.0,69,0.00,,,0.00,weatherlink.com 1.10,2013-07-01 08:57:00,
2013-07-01 05:12:00,59.9,47.0,30.02,ESE,103,4.0,9.0,63,0.00,,,0.00,weatherlink.com 1.10,2013-07-01 09:12:00,
2013-07-01 05:27:00,60.9,47.0,30.03,ESE,108,9.0,13.0,61,0.00,,,0.00,weatherlink.com 1.10,2013-07-01 09:27:00,
2013-07-01 05:42:00,60.9,47.0,30.03,East,101,6.0,8.0,60,0.00,,,0.00,weatherlink.com 1.10,2013-07-01 09:42:00,
2013-07-01 05:57:00,57.8,48.0,30.04,East,101,6.0,7.0,70,0.00,,,0.00,weatherlink.com 1.10,2013-07-01 09:57:00,
2013-07-01 06:12:00,59.1,48.0,30.04,ESE,103,5.0,9.0,68,0.00,,,0.00,weatherlink.com 1.10,2013-07-01 10:12:00,
2013-07-01 06:27:00,59.4,48.0,30.05,ESE,108,4.0,9.0,66,0.00,,,0.00,weatherlink.com 1.10,2013-07-01 10:27:00,
2013-07-01 06:42:00,59.1,48.0,30.05,ESE,120,9.0,9.0,68,0.00,,,0.00,weatherlink.com 1.10,2013-07-01 10:42:00,
2013-07-01 06:57:00,59.4,50.0,30.05,ESE,106,7.0,10.0,71,0.00,,,0.00,weatherlink.com 1.10,2013-07-01 10:57:00,
2013-07-01 07:12:00,60.4,51.0,30.05,East,94,7.0,14.0,72,0.00,,,0.00,weatherlink.com 1.10,2013-07-01 11:12:00,
2013-07-01 07:27:00,61.0,52.0,30.06,East,101,9.0,15.0,73,0.00,,,0.00,weatherlink.com 1.10,2013-07-01 11:27:00,
2013-07-01 07:42:00,61.5,53.0,30.06,East,98,6.0,15.0,74,0.00,,,0.00,weatherlink.com 1.10,2013-07-01 11:42:00,
2013-07-01 07:57:00,62.3,54.0,30.06,SE,124,6.0,14.0,75,0.00,,,0.00,weatherlink.com 1.10,2013-07-01 11:57:00,
2013-07-01 08:12:00,63.0,55.0,30.06,East,94,7.0,17.0,75,0.00,,,0.00,weatherlink.com 1.10,2013-07-01 12:12:00,
2013-07-01 08:27:00,64.1,56.0,30.06,SE,125,12.0,15.0,74,0.00,,,0.00,weatherlink.com 1.10,2013-07-01 12:27:00,
2013-07-01 08:42:00,65.0,56.0,30.07,ESE,115,13.0,14.0,73,0.00,,,0.00,weatherlink.com 1.10,2013-07-01 12:42:00,
2013-07-01 08:57:00,65.0,56.0,30.07,ESE,102,8.0,18.0,73,0.00,,,0.00,weatherlink.com 1.10,2013-07-01 12:57:00,
2013-07-01 09:12:00,65.6,56.0,30.08,ESE,104,14.0,18.0,71,0.00,,,0.00,weatherlink.com 1.10,2013-07-01 13:12:00,
2013-07-01 09:27:00,66.5,56.0,30.08,ESE,111,10.0,18.0,69,0.00,,,0.00,weatherlink.com 1.10,2013-07-01 13:27:00,
2013-07-01 09:42:00,67.0,56.0,30.08,ESE,121,17.0,17.0,68,0.00,,,0.00,weatherlink.com 1.10,2013-07-01 13:42:00,
2013-07-01 09:57:00,67.2,56.0,30.08,ESE,103,9.0,18.0,68,0.00,,,0.00,weatherlink.com 1.10,2013-07-01 13:57:00,
2013-07-01 10:12:00,67.4,57.0,30.08,ESE,104,7.0,17.0,69,0.00,,,0.00,weatherlink.com 1.10,2013-07-01 14:12:00,
2013-07-01 10:27:00,67.9,57.0,30.08,East,82,8.0,17.0,68,0.00,,,0.00,weatherlink.com 1.10,2013-07-01 14:27:00,
2013-07-01 10:42:00,67.8,56.0,30.08,East,98,11.0,18.0,66,0.00,,,0.00,weatherlink.com 1.10,2013-07-01 14:42:00,
2013-07-01 10:57:00,67.7,56.0,30.08,East,91,14.0,18.0,66,0.00,,,0.00,weatherlink.com 1.10,2013-07-01 14:57:00,
2013-07-01 11:12:00,68.2,56.0,30.09,ESE,108,7.0,15.0,65,0.00,,,0.00,weatherlink.com 1.10,2013-07-01 15:12:00,
2013-07-01 11:27:00,68.4,57.0,30.08,East,86,9.0,19.0,66,0.00,,,0.00,weatherlink.com 1.10,2013-07-01 15:27:00,
2013-07-01 11:42:00,68.2,56.0,30.08,East,101,15.0,22.0,66,0.00,,,0.00,weatherlink.com 1.10,2013-07-01 15:42:00,
2013-07-01 11:57:00,69.2,56.0,30.08,East,96,16.0,18.0,64,0.00,,,0.00,weatherlink.com 1.10,2013-07-01 15:57:00,
2013-07-01 12:12:00,69.5,56.0,30.08,East,89,14.0,22.0,63,0.00,,,0.00,weatherlink.com 1.10,2013-07-01 16:12:00,
2013-07-01 12:28:00,70.6,56.0,30.08,ESE,113,12.0,22.0,60,0.00,,,0.00,weatherlink.com 1.10,2013-07-01 16:28:00,
2013-07-01 12:43:00,70.2,55.0,30.08,East,86,13.0,22.0,59,0.00,,,0.00,weatherlink.com 1.10,2013-07-01 16:43:00,
2013-07-01 12:58:00,70.4,54.0,30.09,East,95,11.0,23.0,57,0.00,,,0.00,weatherlink.com 1.10,2013-07-01 16:58:00,
2013-07-01 13:13:00,70.6,55.0,30.08,ENE,77,12.0,23.0,59,0.00,,,0.00,weatherlink.com 1.10,2013-07-01 17:13:00,
2013-07-01 13:28:00,71.4,55.0,30.09,East,83,14.0,22.0,56,0.00,,,0.00,weatherlink.com 1.10,2013-07-01 17:28:00,
2013-07-01 13:43:00,72.1,55.0,30.09,East,96,13.0,21.0,55,0.00,,,0.00,weatherlink.com 1.10,2013-07-01 17:43:00,
2013-07-01 13:58:00,70.7,53.0,30.09,ENE,76,10.0,23.0,54,0.00,,,0.00,weatherlink.com 1.10,2013-07-01 17:58:00,
2013-07-01 14:13:00,70.8,52.0,30.09,East,89,11.0,21.0,52,0.00,,,0.00,weatherlink.com 1.10,2013-07-01 18:13:00,
2013-07-01 14:28:00,70.0,53.0,30.09,East,98,10.0,17.0,55,0.00,,,0.00,weatherlink.com 1.10,2013-07-01 18:28:00,
2013-07-01 14:43:00,70.2,52.0,30.09,East,101,13.0,21.0,52,0.00,,,0.00,weatherlink.com 1.10,2013-07-01 18:43:00,
2013-07-01 14:58:00,71.5,52.0,30.09,East,94,10.0,18.0,50,0.00,,,0.00,weatherlink.com 1.10,2013-07-01 18:58:00,
2013-07-01 15:13:00,71.0,51.0,30.10,East,101,8.0,18.0,50,0.00,,,0.00,weatherlink.com 1.10,2013-07-01 19:13:00,
2013-07-01 15:28:00,72.2,51.0,30.09,East,96,9.0,17.0,48,0.00,,,0.00,weatherlink.com 1.10,2013-07-01 19:28:00,
2013-07-01 15:58:00,72.2,49.0,30.09,ESE,107,8.0,16.0,44,0.00,,,0.00,weatherlink.com 1.10,2013-07-01 19:58:00,
2013-07-01 16:13:00,72.1,51.0,30.09,East,82,7.0,18.0,47,0.00,,,0.00,weatherlink.com 1.10,2013-07-01 20:13:00,
2013-07-01 16:28:00,71.6,50.0,30.09,East,90,8.0,16.0,46,0.00,,,0.00,weatherlink.com 1.10,2013-07-01 20:28:00,
2013-07-01 16:43:00,72.9,50.0,30.09,East,95,9.0,14.0,45,0.00,,,0.00,weatherlink.com 1.10,2013-07-01 20:43:00,
2013-07-01 16:58:00,73.1,49.0,30.09,ENE,59,3.0,14.0,43,0.00,,,0.00,weatherlink.com 1.10,2013-07-01 20:58:00,
2013-07-01 17:13:00,70.3,48.0,30.09,East,101,8.0,14.0,46,0.00,,,0.00,weatherlink.com 1.10,2013-07-01 21:13:00,
2013-07-01 17:28:00,70.9,48.0,30.09,East,96,14.0,21.0,45,0.00,,,0.00,weatherlink.com 1.10,2013-07-01 21:28:00,
2013-07-01 17:43:00,71.4,48.0,30.09,East,98,10.0,17.0,44,0.00,,,0.00,weatherlink.com 1.10,2013-07-01 21:43:00,
2013-07-01 17:58:00,71.6,47.0,30.09,East,90,6.0,16.0,42,0.00,,,0.00,weatherlink.com 1.10,2013-07-01 21:58:00,
2013-07-01 18:13:00,70.8,46.0,30.09,ESE,113,8.0,18.0,42,0.00,,,0.00,weatherlink.com 1.10,2013-07-01 22:13:00,
2013-07-01 18:28:00,71.2,48.0,30.09,East,100,10.0,13.0,44,0.00,,,0.00,weatherlink.com 1.10,2013-07-01 22:28:00,
2013-07-01 18:43:00,70.8,48.0,30.08,ESE,119,8.0,15.0,44,0.00,,,0.00,weatherlink.com 1.10,2013-07-01 22:43:00,
2013-07-01 18:58:00,71.0,49.0,30.09,ESE,113,7.0,14.0,45,0.00,,,0.00,weatherlink.com 1.10,2013-07-01 22:58:00,
2013-07-01 19:13:00,71.0,49.0,30.09,ESE,107,8.0,13.0,46,0.00,,,0.00,weatherlink.com 1.10,2013-07-01 23:13:00,
2013-07-01 19:28:00,70.3,48.0,30.09,East,86,13.0,18.0,45,0.00,,,0.00,weatherlink.com 1.10,2013-07-01 23:28:00,
2013-07-01 19:43:00,69.8,47.0,30.09,East,92,3.0,16.0,45,0.00,,,0.00,weatherlink.com 1.10,2013-07-01 23:43:00,
2013-07-01 19:58:00,69.6,47.0,30.09,ESE,115,8.0,11.0,45,0.00,,,0.00,weatherlink.com 1.10,2013-07-01 23:58:00,
2013-07-01 20:13:00,69.2,47.0,30.09,ESE,104,9.0,12.0,46,0.00,,,0.00,weatherlink.com 1.10,2013-07-02 00:13:00,
2013-07-01 20:28:00,68.5,45.0,30.09,East,79,7.0,14.0,43,0.00,,,0.00,weatherlink.com 1.10,2013-07-02 00:28:00,
2013-07-01 20:43:00,67.9,44.0,30.10,ESE,107,5.0,11.0,42,0.00,,,0.00,weatherlink.com 1.10,2013-07-02 00:43:00,
2013-07-01 20:58:00,66.9,43.0,30.10,ESE,113,8.0,8.0,42,0.00,,,0.00,weatherlink.com 1.10,2013-07-02 00:58:00,
2013-07-01 21:13:00,65.8,43.0,30.09,ESE,107,3.0,7.0,44,0.00,,,0.00,weatherlink.com 1.10,2013-07-02 01:13:00,
2013-07-01 21:28:00,65.1,42.0,30.10,East,98,5.0,8.0,44,0.00,,,0.00,weatherlink.com 1.10,2013-07-02 01:28:00,
2013-07-01 21:43:00,64.4,42.0,30.10,ESE,109,3.0,7.0,44,0.00,,,0.00,weatherlink.com 1.10,2013-07-02 01:43:00,
2013-07-01 21:58:00,62.8,42.0,30.10,ESE,111,4.0,5.0,47,0.00,,,0.00,weatherlink.com 1.10,2013-07-02 01:58:00,
2013-07-01 22:13:00,61.8,42.0,30.11,ESE,108,4.0,4.0,49,0.00,,,0.00,weatherlink.com 1.10,2013-07-02 02:13:00,
2013-07-01 22:28:00,62.3,42.0,30.11,ESE,107,3.0,5.0,47,0.00,,,0.00,weatherlink.com 1.10,2013-07-02 02:28:00,
2013-07-01 22:43:00,61.6,42.0,30.11,ESE,107,2.0,4.0,49,0.00,,,0.00,weatherlink.com 1.10,2013-07-02 02:43:00,
2013-07-01 22:58:00,62.1,42.0,30.11,ESE,107,2.0,3.0,48,0.00,,,0.00,weatherlink.com 1.10,2013-07-02 02:58:00,
2013-07-01 23:13:00,61.9,42.0,30.11,ESE,107,1.0,2.0,48,0.00,,,0.00,weatherlink.com 1.10,2013-07-02 03:13:00,
2013-07-01 23:28:00,60.0,42.0,30.11,ESE,107,2.0,3.0,52,0.00,,,0.00,weatherlink.com 1.10,2013-07-02 03:28:00,
2013-07-01 23:43:00,59.4,42.0,30.11,ESE,107,1.0,3.0,53,0.00,,,0.00,weatherlink.com 1.10,2013-07-02 03:43:00,
2013-07-01 23:58:00,57.1,43.0,30.10,ESE,107,1.0,3.0,59,0.00,,,0.00,weatherlink.com 1.10,2013-07-02 03:58:00,